Time;durP1;ratioP1;P1;durP2;ratioP2;P2;SDS_P1;SDS_P2;PMS_P1;PMS_P2;Temp;Humidity;BMP_temperature;BMP_pressure;BME280_temperature;BME280_humidity;BME280_pressure;Samples;Min_cycle;Max_cycle;Signal;HPM_P1;HPM_P2
2022/05/04 00:00:42;;;;;;;9.07;3.15;;;;;;;;;;5029822;28;20054;-73
2022/05/04 00:03:09;;;;;;;9.55;3.53;;;;;;;;;;5033543;28;20046;-72
2022/05/04 00:05:35;;;;;;;9.75;3.10;;;;;;;;;;5042923;28;20481;-73
2022/05/04 00:08:02;;;;;;;5.97;2.78;;;;;;;;;;5037850;28;20060;-72
2022/05/04 00:10:30;;;;;;;14.10;2.97;;;;;;;;;;5033586;28;20058;-72
2022/05/04 00:12:59;;;;;;;6.78;2.88;;;;;;;;;;5045026;28;20485;-73
2022/05/04 00:15:25;;;;;;;7.05;2.65;;;;;;;;;;5032848;28;20058;-73
2022/05/04 00:17:52;;;;;;;8.60;2.88;;;;;;;;;;5031172;28;20058;-72
2022/05/04 00:20:18;;;;;;;8.88;3.08;;;;;;;;;;5046605;28;20049;-73
2022/05/04 00:22:45;;;;;;;8.60;3.10;;;;;;;;;;5031658;28;20054;-73
2022/05/04 00:25:11;;;;;;;7.45;2.83;;;;;;;;;;5032487;28;20050;-72
2022/05/04 00:27:38;;;;;;;6.82;3.38;;;;;;;;;;5027324;28;20054;-73
2022/05/04 00:30:05;;;;;;;18.98;3.05;;;;;;;;;;5030693;28;20054;-73
2022/05/04 00:32:31;;;;;;;9.27;3.25;;;;;;;;;;5031152;28;20050;-72
2022/05/04 00:34:58;;;;;;;10.02;3.03;;;;;;;;;;5030547;28;20042;-72
2022/05/04 00:37:24;;;;;;;10.68;3.17;;;;;;;;;;5031961;28;20054;-73
2022/05/04 00:39:50;;;;;;;8.95;3.13;;;;;;;;;;5031118;28;20054;-73
2022/05/04 00:42:18;;;;;;;8.20;3.20;;;;;;;;;;5032587;28;20056;-72
2022/05/04 00:44:46;;;;;;;6.85;2.50;;;;;;;;;;5031015;28;20054;-72
2022/05/04 00:47:13;;;;;;;14.40;3.30;;;;;;;;;;5032589;28;20060;-72
2022/05/04 00:49:40;;;;;;;6.28;2.85;;;;;;;;;;5032325;28;20088;-72
2022/05/04 00:52:07;;;;;;;8.63;2.97;;;;;;;;;;5031431;28;20054;-72
2022/05/04 00:54:34;;;;;;;8.93;3.10;;;;;;;;;;5031947;28;20050;-72
2022/05/04 00:57:01;;;;;;;7.90;2.72;;;;;;;;;;5032310;28;20055;-73
2022/05/04 00:59:29;;;;;;;11.63;3.03;;;;;;;;;;5031415;28;20058;-72
2022/05/04 01:01:56;;;;;;;8.40;2.85;;;;;;;;;;5029302;28;20052;-72
2022/05/04 01:04:22;;;;;;;12.90;3.75;;;;;;;;;;5029257;28;20058;-73
2022/05/04 01:06:48;;;;;;;7.93;2.97;;;;;;;;;;5027156;28;20065;-73
2022/05/04 01:09:16;;;;;;;15.43;3.22;;;;;;;;;;5022514;28;20045;-73
2022/05/04 01:11:43;;;;;;;11.13;3.03;;;;;;;;;;5034289;28;20054;-73
2022/05/04 01:14:10;;;;;;;8.52;3.53;;;;;;;;;;5031521;28;20050;-73
2022/05/04 01:16:37;;;;;;;10.98;3.28;;;;;;;;;;5028184;28;20489;-73
2022/05/04 01:19:04;;;;;;;13.43;3.65;;;;;;;;;;5034475;28;20084;-73
2022/05/04 01:21:30;;;;;;;15.95;3.60;;;;;;;;;;5031467;28;20438;-72
2022/05/04 01:23:57;;;;;;;12.13;3.15;;;;;;;;;;5033081;28;20060;-73
2022/05/04 01:26:23;;;;;;;6.35;3.15;;;;;;;;;;5031762;28;20060;-73
2022/05/04 01:28:50;;;;;;;8.98;3.35;;;;;;;;;;5034261;28;20502;-74
2022/05/04 01:31:20;;;;;;;10.18;2.70;;;;;;;;;;5031530;28;20077;-73
2022/05/04 01:33:47;;;;;;;7.93;2.80;;;;;;;;;;5032020;28;20065;-73
2022/05/04 01:36:13;;;;;;;8.82;3.33;;;;;;;;;;5032020;28;20054;-73
2022/05/04 01:38:39;;;;;;;8.23;2.85;;;;;;;;;;5033762;28;20060;-73
2022/05/04 01:42:02;;;;;;;8.23;2.95;;;;;;;;;;5031514;28;20050;-73
2022/05/04 01:43:52;;;;;;;20.33;4.40;;;;;;;;;;5031426;28;20518;-73
2022/05/04 01:46:19;;;;;;;8.82;2.78;;;;;;;;;;5031210;28;20058;-73
2022/05/04 01:48:48;;;;;;;13.48;3.55;;;;;;;;;;5033451;28;20509;-73
2022/05/04 01:51:14;;;;;;;8.52;3.25;;;;;;;;;;5033234;28;20506;-73
2022/05/04 01:53:41;;;;;;;9.30;3.13;;;;;;;;;;5033979;28;20054;-73
2022/05/04 01:56:07;;;;;;;12.68;3.10;;;;;;;;;;5032520;28;20049;-73
2022/05/04 01:58:34;;;;;;;8.02;3.33;;;;;;;;;;5032184;28;20065;-73
2022/05/04 02:01:01;;;;;;;7.15;3.38;;;;;;;;;;5031544;28;20053;-73
2022/05/04 02:03:28;;;;;;;7.80;3.65;;;;;;;;;;5031514;28;20057;-73
2022/05/04 02:05:55;;;;;;;10.57;3.42;;;;;;;;;;5031439;28;20201;-73
2022/05/04 02:08:21;;;;;;;10.18;4.32;;;;;;;;;;5032569;28;20534;-73
2022/05/04 02:10:49;;;;;;;6.38;3.42;;;;;;;;;;5033391;28;20064;-73
2022/05/04 02:13:15;;;;;;;8.10;3.47;;;;;;;;;;5029294;28;20120;-72
2022/05/04 02:15:45;;;;;;;10.63;3.25;;;;;;;;;;5031076;28;20058;-72
2022/05/04 02:18:12;;;;;;;11.73;3.05;;;;;;;;;;5033079;28;20061;-73
2022/05/04 02:20:38;;;;;;;12.55;3.03;;;;;;;;;;5033524;28;20061;-73
2022/05/04 02:23:04;;;;;;;10.10;3.25;;;;;;;;;;5033190;28;20520;-73
2022/05/04 02:25:31;;;;;;;11.35;3.70;;;;;;;;;;5032144;28;20058;-73
2022/05/04 02:27:57;;;;;;;6.95;3.35;;;;;;;;;;5031611;28;20064;-73
2022/05/04 02:30:23;;;;;;;8.70;3.30;;;;;;;;;;5031492;28;20089;-73
2022/05/04 02:32:49;;;;;;;8.40;2.90;;;;;;;;;;5032678;28;20486;-73
2022/05/04 02:38:01;;;;;;;12.20;3.70;;;;;;;;;;5033168;28;20062;-73
2022/05/04 02:40:27;;;;;;;9.45;3.20;;;;;;;;;;5030708;28;20056;-73
2022/05/04 02:42:54;;;;;;;10.70;3.88;;;;;;;;;;5032479;28;20473;-73
2022/05/04 02:45:20;;;;;;;5.45;2.53;;;;;;;;;;5030639;28;20490;-72
2022/05/04 02:47:47;;;;;;;13.05;3.40;;;;;;;;;;5032386;28;20513;-72
2022/05/04 02:50:14;;;;;;;8.73;3.58;;;;;;;;;;5031650;28;22030;-72
2022/05/04 02:52:40;;;;;;;12.02;3.53;;;;;;;;;;5034139;28;20057;-73
2022/05/04 02:55:06;;;;;;;10.07;3.80;;;;;;;;;;5033829;28;20041;-73
2022/05/04 02:57:33;;;;;;;14.35;4.45;;;;;;;;;;5036252;28;20054;-73
2022/05/04 02:59:59;;;;;;;11.95;3.28;;;;;;;;;;5035402;28;20050;-73
2022/05/04 03:02:28;;;;;;;13.85;3.90;;;;;;;;;;5035576;28;20588;-73
2022/05/04 03:05:02;;;;;;;15.73;3.95;;;;;;;;;;5035171;28;20061;-72
2022/05/04 03:07:28;;;;;;;11.07;3.13;;;;;;;;;;5036331;28;20137;-72
2022/05/04 03:09:55;;;;;;;9.25;3.42;;;;;;;;;;5034627;28;20058;-73
2022/05/04 03:12:22;;;;;;;10.27;2.50;;;;;;;;;;5036276;28;20058;-72
2022/05/04 03:14:48;;;;;;;9.50;3.03;;;;;;;;;;5034544;28;20560;-72
2022/05/04 03:17:15;;;;;;;9.85;3.42;;;;;;;;;;5035379;28;20058;-72
2022/05/04 03:19:41;;;;;;;10.90;3.55;;;;;;;;;;5033985;28;20092;-72
2022/05/04 03:22:08;;;;;;;12.20;3.75;;;;;;;;;;5033815;28;20138;-72
2022/05/04 03:24:34;;;;;;;8.93;2.85;;;;;;;;;;5035872;28;20058;-72
2022/05/04 03:27:00;;;;;;;11.05;3.67;;;;;;;;;;5033414;28;20057;-72
2022/05/04 03:29:27;;;;;;;11.65;3.10;;;;;;;;;;5035200;28;20082;-72
2022/05/04 03:31:53;;;;;;;11.65;3.20;;;;;;;;;;5035185;28;20058;-72
2022/05/04 03:34:20;;;;;;;8.98;3.67;;;;;;;;;;5032714;28;20498;-72
2022/05/04 03:36:46;;;;;;;7.32;3.30;;;;;;;;;;5034563;28;20053;-72
2022/05/04 03:39:13;;;;;;;16.92;4.47;;;;;;;;;;5035391;28;20065;-73
2022/05/04 03:41:39;;;;;;;12.85;2.95;;;;;;;;;;5033363;28;20060;-73
2022/05/04 03:44:06;;;;;;;7.57;3.60;;;;;;;;;;5034094;28;20486;-72
2022/05/04 03:46:45;;;;;;;15.80;3.53;;;;;;;;;;5034336;28;20050;-73
2022/05/04 03:49:12;;;;;;;11.60;3.53;;;;;;;;;;5033104;28;20064;-72
2022/05/04 03:51:39;;;;;;;9.18;3.42;;;;;;;;;;5035312;28;20058;-73
2022/05/04 03:54:05;;;;;;;11.57;3.50;;;;;;;;;;5033936;28;20056;-73
2022/05/04 03:56:32;;;;;;;10.05;3.03;;;;;;;;;;5034908;28;20536;-73
2022/05/04 03:58:58;;;;;;;13.32;3.63;;;;;;;;;;5035369;28;20391;-72
2022/05/04 04:01:24;;;;;;;10.30;3.20;;;;;;;;;;5033308;28;20046;-73
2022/05/04 04:03:50;;;;;;;11.77;3.25;;;;;;;;;;5035280;28;20108;-72
2022/05/04 04:06:17;;;;;;;7.05;3.08;;;;;;;;;;5034246;28;20065;-73
2022/05/04 04:08:50;;;;;;;14.60;4.57;;;;;;;;;;5034262;28;20080;-73
2022/05/04 04:11:17;;;;;;;10.05;3.60;;;;;;;;;;5032022;28;20061;-73
2022/05/04 04:13:44;;;;;;;7.13;2.83;;;;;;;;;;5033184;28;20056;-72
2022/05/04 04:16:10;;;;;;;9.73;3.88;;;;;;;;;;5025564;28;20225;-72
2022/05/04 04:18:36;;;;;;;8.07;3.15;;;;;;;;;;5035187;28;20486;-72
2022/05/04 04:23:48;;;;;;;13.02;3.92;;;;;;;;;;5029369;28;20553;-72
2022/05/04 04:26:15;;;;;;;12.40;4.65;;;;;;;;;;5032650;28;20060;-72
2022/05/04 04:28:43;;;;;;;8.85;3.30;;;;;;;;;;5034413;28;20054;-73
2022/05/04 04:31:10;;;;;;;8.02;3.10;;;;;;;;;;5032600;28;20054;-72
2022/05/04 04:33:36;;;;;;;14.00;3.47;;;;;;;;;;5034139;28;20050;-72
2022/05/04 04:36:03;;;;;;;7.90;3.22;;;;;;;;;;5033270;28;20050;-72
2022/05/04 04:38:30;;;;;;;10.23;3.20;;;;;;;;;;5034945;28;20433;-72
2022/05/04 04:40:56;;;;;;;11.25;4.05;;;;;;;;;;5031626;28;20050;-72
2022/05/04 04:43:22;;;;;;;12.30;3.35;;;;;;;;;;5031708;28;20085;-71
2022/05/04 04:45:49;;;;;;;11.65;5.40;;;;;;;;;;5030172;28;20603;-71
2022/05/04 04:48:16;;;;;;;12.30;3.63;;;;;;;;;;5033664;28;20165;-71
2022/05/04 04:50:43;;;;;;;13.77;4.80;;;;;;;;;;5035602;28;20062;-71
2022/05/04 04:53:09;;;;;;;8.25;3.40;;;;;;;;;;5032248;28;20487;-71
2022/05/04 04:55:36;;;;;;;13.10;3.55;;;;;;;;;;5034519;28;20050;-71
2022/05/04 04:58:02;;;;;;;12.05;4.07;;;;;;;;;;5034228;28;20054;-71
2022/05/04 05:00:28;;;;;;;9.60;3.22;;;;;;;;;;5031712;28;20080;-71
2022/05/04 05:02:55;;;;;;;11.27;4.07;;;;;;;;;;5033482;28;20519;-71
2022/05/04 05:05:21;;;;;;;9.05;4.50;;;;;;;;;;5032010;28;20200;-71
2022/05/04 05:07:47;;;;;;;13.32;4.47;;;;;;;;;;5032050;28;20061;-71
2022/05/04 05:10:14;;;;;;;9.05;3.63;;;;;;;;;;5034055;28;20049;-71
2022/05/04 05:12:40;;;;;;;10.20;3.47;;;;;;;;;;5029652;28;20395;-72
2022/05/04 05:17:51;;;;;;;9.83;4.00;;;;;;;;;;5031972;28;20076;-71
2022/05/04 05:20:19;;;;;;;11.32;3.88;;;;;;;;;;5030859;28;20512;-71
2022/05/04 05:22:45;;;;;;;14.65;3.35;;;;;;;;;;5033167;28;20054;-72
2022/05/04 05:25:12;;;;;;;19.60;4.55;;;;;;;;;;5034288;28;20054;-72
2022/05/04 05:27:38;;;;;;;11.15;3.70;;;;;;;;;;5033881;28;20052;-72
2022/05/04 05:30:04;;;;;;;7.47;3.10;;;;;;;;;;5032996;28;20062;-71
2022/05/04 05:32:31;;;;;;;11.77;4.22;;;;;;;;;;5033275;28;20058;-71
2022/05/04 05:34:57;;;;;;;9.80;3.38;;;;;;;;;;5030575;28;20565;-71
2022/05/04 05:37:23;;;;;;;8.90;3.03;;;;;;;;;;5032996;28;20060;-71
2022/05/04 05:39:50;;;;;;;8.68;3.30;;;;;;;;;;5032055;28;20601;-71
2022/05/04 05:42:16;;;;;;;12.02;3.22;;;;;;;;;;5029595;28;20132;-74
2022/05/04 05:44:43;;;;;;;9.43;3.65;;;;;;;;;;5028900;28;20078;-68
2022/05/04 05:47:09;;;;;;;7.85;3.15;;;;;;;;;;5023107;28;20060;-71
2022/05/04 05:49:35;;;;;;;17.75;3.78;;;;;;;;;;5023555;28;20054;-72
2022/05/04 05:52:02;;;;;;;11.05;2.97;;;;;;;;;;5014355;28;20596;-71
2022/05/04 05:54:30;;;;;;;13.55;3.75;;;;;;;;;;5020977;28;20060;-71
2022/05/04 05:56:57;;;;;;;13.68;3.40;;;;;;;;;;5027924;28;20053;-72
2022/05/04 05:59:23;;;;;;;7.72;3.53;;;;;;;;;;5026557;28;20061;-70
2022/05/04 06:01:49;;;;;;;9.77;2.70;;;;;;;;;;5026644;28;20064;-75
2022/05/04 06:04:16;;;;;;;7.38;2.85;;;;;;;;;;5034510;28;20058;-78
2022/05/04 06:06:42;;;;;;;10.80;3.33;;;;;;;;;;5036362;28;20090;-74
2022/05/04 06:09:09;;;;;;;10.75;3.40;;;;;;;;;;5031331;28;20502;-72
2022/05/04 06:11:36;;;;;;;15.27;3.03;;;;;;;;;;5028886;28;20061;-73
2022/05/04 06:14:03;;;;;;;19.15;4.20;;;;;;;;;;5032555;28;20054;-72
2022/05/04 06:16:29;;;;;;;13.30;3.33;;;;;;;;;;5040084;28;20057;-74
2022/05/04 06:18:55;;;;;;;14.18;3.45;;;;;;;;;;5034429;28;20132;-70
2022/05/04 06:21:22;;;;;;;6.07;2.90;;;;;;;;;;5035137;28;20053;-70
2022/05/04 06:23:48;;;;;;;8.32;3.38;;;;;;;;;;5036493;28;20053;-72
2022/05/04 06:26:14;;;;;;;15.07;3.63;;;;;;;;;;5034474;28;20058;-74
2022/05/04 06:28:40;;;;;;;12.20;3.80;;;;;;;;;;5035409;28;20148;-75
2022/05/04 06:34:07;;;;;;;13.10;3.22;;;;;;;;;;5041674;28;20053;-74
2022/05/04 06:36:40;;;;;;;13.63;3.67;;;;;;;;;;5032013;28;20054;-75
2022/05/04 06:39:07;;;;;;;12.50;3.40;;;;;;;;;;5019786;28;20100;-74
2022/05/04 06:41:37;;;;;;;12.93;3.30;;;;;;;;;;5022059;28;20543;-75
2022/05/04 06:44:05;;;;;;;11.23;3.47;;;;;;;;;;5020985;28;20149;-76
2022/05/04 06:46:31;;;;;;;5.57;3.13;;;;;;;;;;5023120;28;20053;-75
2022/05/04 06:48:58;;;;;;;10.90;2.97;;;;;;;;;;5021513;28;20061;-70
2022/05/04 06:51:24;;;;;;;7.68;3.88;;;;;;;;;;5022962;28;20145;-72
2022/05/04 06:53:51;;;;;;;7.68;2.80;;;;;;;;;;5018135;28;20048;-74
2022/05/04 06:56:37;;;;;;;10.10;3.15;;;;;;;;;;5018802;28;20050;-74
2022/05/04 06:59:03;;;;;;;12.43;3.55;;;;;;;;;;5041350;28;20145;-71
2022/05/04 07:01:31;;;;;;;8.30;3.08;;;;;;;;;;5029593;28;20062;-72
2022/05/04 07:03:57;;;;;;;14.05;3.90;;;;;;;;;;5022023;28;20059;-73
2022/05/04 07:06:24;;;;;;;5.57;3.25;;;;;;;;;;5017915;28;20046;-72
2022/05/04 07:08:50;;;;;;;9.70;3.35;;;;;;;;;;5021219;28;20064;-74
2022/05/04 07:11:16;;;;;;;8.65;3.47;;;;;;;;;;5020376;28;20058;-74
2022/05/04 07:13:43;;;;;;;14.18;3.58;;;;;;;;;;5021751;28;22169;-73
2022/05/04 07:16:10;;;;;;;12.13;4.05;;;;;;;;;;5018524;28;21158;-73
2022/05/04 07:18:36;;;;;;;13.50;3.55;;;;;;;;;;5032999;28;20050;-74
2022/05/04 07:21:03;;;;;;;9.40;4.15;;;;;;;;;;5031851;28;20058;-75
2022/05/04 07:23:29;;;;;;;11.73;3.67;;;;;;;;;;5027173;28;20057;-74
2022/05/04 07:25:55;;;;;;;8.13;3.40;;;;;;;;;;5026068;28;20049;-73
2022/05/04 07:28:21;;;;;;;9.43;3.67;;;;;;;;;;5037801;28;20054;-75
2022/05/04 07:30:48;;;;;;;11.68;4.18;;;;;;;;;;5035718;28;20064;-75
2022/05/04 07:33:14;;;;;;;8.55;3.80;;;;;;;;;;5037328;28;20436;-73
2022/05/04 07:35:42;;;;;;;13.02;3.95;;;;;;;;;;5036692;28;20053;-73
2022/05/04 07:38:08;;;;;;;10.68;4.10;;;;;;;;;;5040322;28;20055;-75
2022/05/04 07:43:19;;;;;;;11.63;4.70;;;;;;;;;;5037913;28;20054;-74
2022/05/04 07:45:47;;;;;;;10.55;4.40;;;;;;;;;;5040425;28;20282;-72
2022/05/04 07:48:13;;;;;;;8.98;4.80;;;;;;;;;;5035414;28;20054;-74
2022/05/04 07:50:40;;;;;;;8.40;4.55;;;;;;;;;;5034676;28;21182;-70
2022/05/04 07:53:06;;;;;;;8.75;4.68;;;;;;;;;;5043636;28;20534;-76
2022/05/04 07:55:35;;;;;;;11.07;5.38;;;;;;;;;;5051140;28;20049;-73
2022/05/04 07:58:01;;;;;;;12.00;5.35;;;;;;;;;;5047098;28;20058;-75
2022/05/04 08:05:59;;;;;;;10.35;4.90;;;;;;;;;;5033067;28;20061;-73
2022/05/04 08:08:25;;;;;;;8.63;4.57;;;;;;;;;;5034946;28;20054;-73
2022/05/04 08:10:55;;;;;;;8.32;4.22;;;;;;;;;;5039154;28;21178;-70
2022/05/04 08:13:22;;;;;;;9.07;4.07;;;;;;;;;;5031877;28;20053;-76
2022/05/04 08:15:48;;;;;;;10.70;4.63;;;;;;;;;;5033182;28;20065;-76
2022/05/04 08:18:14;;;;;;;8.68;4.35;;;;;;;;;;5035399;28;20146;-76
2022/05/04 08:20:41;;;;;;;10.18;4.93;;;;;;;;;;5034770;28;20081;-72
2022/05/04 08:23:07;;;;;;;5.60;3.67;;;;;;;;;;5034715;28;20502;-73
2022/05/04 08:25:33;;;;;;;8.85;4.15;;;;;;;;;;5034118;28;20050;-74
2022/05/04 08:28:01;;;;;;;7.07;4.07;;;;;;;;;;5034479;28;20050;-75
2022/05/04 08:30:27;;;;;;;9.13;4.40;;;;;;;;;;5031764;28;20050;-75
2022/05/04 08:32:53;;;;;;;9.45;4.35;;;;;;;;;;5034071;28;20046;-75
2022/05/04 08:35:20;;;;;;;11.43;5.00;;;;;;;;;;5034571;28;20145;-75
2022/05/04 08:37:46;;;;;;;10.35;4.65;;;;;;;;;;5034475;28;20054;-74
2022/05/04 08:40:12;;;;;;;10.40;4.70;;;;;;;;;;5030364;28;20438;-74
2022/05/04 08:42:40;;;;;;;8.90;4.68;;;;;;;;;;5035360;28;20058;-75
2022/05/04 08:45:09;;;;;;;13.82;5.22;;;;;;;;;;5034206;28;20422;-76
2022/05/04 08:47:36;;;;;;;10.93;4.97;;;;;;;;;;5033078;28;20050;-74
2022/05/04 08:50:08;;;;;;;9.10;4.32;;;;;;;;;;5028372;28;20054;-74
2022/05/04 08:52:35;;;;;;;10.45;5.10;;;;;;;;;;5033231;28;20069;-73
2022/05/04 08:55:04;;;;;;;9.30;5.47;;;;;;;;;;5033762;28;20054;-74
2022/05/04 08:57:31;;;;;;;9.02;4.88;;;;;;;;;;5032072;28;20060;-73
2022/05/04 08:59:57;;;;;;;10.05;4.63;;;;;;;;;;5031888;28;20137;-73
2022/05/04 09:02:23;;;;;;;13.68;5.20;;;;;;;;;;5036133;28;20061;-75
2022/05/04 09:04:50;;;;;;;10.75;5.43;;;;;;;;;;5041262;28;20061;-75
2022/05/04 09:07:26;;;;;;;10.85;5.25;;;;;;;;;;5041369;28;20144;-75
2022/05/04 09:09:53;;;;;;;12.02;4.68;;;;;;;;;;5033840;28;20076;-73
2022/05/04 09:12:20;;;;;;;7.97;4.97;;;;;;;;;;5035285;28;20061;-73
2022/05/04 09:14:46;;;;;;;7.22;4.50;;;;;;;;;;5034284;28;20058;-71
2022/05/04 09:17:15;;;;;;;8.32;5.10;;;;;;;;;;5037373;28;20061;-74
2022/05/04 09:20:45;;;;;;;10.18;5.38;;;;;;;;;;5033634;28;20068;-70
2022/05/04 09:22:38;;;;;;;;;;;;;;;;;;5037235;28;20167;-74
2022/05/04 09:25:13;;;;;;;12.23;5.35;;;;;;;;;;5033547;28;45434;-73
2022/05/04 09:27:39;;;;;;;12.68;5.72;;;;;;;;;;5040516;28;20053;-72
2022/05/04 09:30:06;;;;;;;9.82;5.13;;;;;;;;;;5028654;28;20053;-73
2022/05/04 09:32:32;;;;;;;10.63;5.07;;;;;;;;;;5032464;28;20520;-74
2022/05/04 09:35:01;;;;;;;10.93;5.03;;;;;;;;;;5032536;28;21163;-76
2022/05/04 09:45:52;;;;;;;12.52;4.45;;;;;;;;;;5032816;28;20059;-72
2022/05/04 09:48:26;;;;;;;9.93;4.18;;;;;;;;;;5032767;28;20050;-73
2022/05/04 09:50:57;;;;;;;9.88;5.18;;;;;;;;;;5030947;28;20061;-72
2022/05/04 09:53:27;;;;;;;10.93;5.80;;;;;;;;;;5027277;28;20049;-72
2022/05/04 09:55:57;;;;;;;9.40;4.85;;;;;;;;;;5028005;28;20060;-71
2022/05/04 09:58:25;;;;;;;10.52;4.80;;;;;;;;;;5020653;28;20054;-71
2022/05/04 10:00:52;;;;;;;12.90;5.47;;;;;;;;;;5023291;28;20054;-72
2022/05/04 10:03:18;;;;;;;9.85;5.63;;;;;;;;;;5030737;28;20481;-72
2022/05/04 10:05:45;;;;;;;10.63;5.00;;;;;;;;;;5028801;28;20051;-72
2022/05/04 10:08:12;;;;;;;7.13;4.45;;;;;;;;;;5032351;28;20422;-72
2022/05/04 10:10:39;;;;;;;8.32;5.60;;;;;;;;;;5033310;28;20061;-72
2022/05/04 10:13:06;;;;;;;11.27;5.40;;;;;;;;;;5030805;28;20060;-71
2022/05/04 10:15:34;;;;;;;10.43;5.53;;;;;;;;;;5030735;28;20057;-72
2022/05/04 10:18:05;;;;;;;11.52;5.25;;;;;;;;;;5031566;28;20060;-70
2022/05/04 10:20:34;;;;;;;12.20;6.15;;;;;;;;;;5032158;28;20991;-72
2022/05/04 10:23:02;;;;;;;19.45;5.80;;;;;;;;;;5032995;28;20052;-71
2022/05/04 10:25:33;;;;;;;10.23;5.97;;;;;;;;;;5032400;28;20045;-72
2022/05/04 10:28:13;;;;;;;10.90;5.57;;;;;;;;;;5033062;28;20484;-73
2022/05/04 10:30:56;;;;;;;11.90;5.28;;;;;;;;;;5032070;28;20068;-71
2022/05/04 10:33:25;;;;;;;9.82;5.30;;;;;;;;;;5028740;28;20065;-71
2022/05/04 10:35:52;;;;;;;8.32;6.03;;;;;;;;;;5031622;28;20050;-71
2022/05/04 10:38:18;;;;;;;11.60;6.03;;;;;;;;;;5028554;28;20058;-71
2022/05/04 10:40:58;;;;;;;13.00;5.97;;;;;;;;;;5024156;28;20052;-73
2022/05/04 10:43:38;;;;;;;10.45;5.57;;;;;;;;;;5021758;28;20062;-69
2022/05/04 10:46:07;;;;;;;10.20;6.13;;;;;;;;;;5031279;28;20054;-69
2022/05/04 10:48:34;;;;;;;8.30;5.88;;;;;;;;;;5032429;28;20050;-71
2022/05/04 10:51:12;;;;;;;13.23;6.32;;;;;;;;;;5029735;28;20054;-70
2022/05/04 10:53:46;;;;;;;11.52;5.47;;;;;;;;;;5032196;28;20149;-73
2022/05/04 10:56:13;;;;;;;8.55;5.65;;;;;;;;;;5032147;28;20046;-72
2022/05/04 10:58:43;;;;;;;10.43;6.43;;;;;;;;;;5030468;28;20081;-68
2022/05/04 11:01:11;;;;;;;10.38;5.88;;;;;;;;;;5031135;28;20068;-70
2022/05/04 11:03:49;;;;;;;14.40;5.90;;;;;;;;;;5029416;28;20120;-75
2022/05/04 11:06:25;;;;;;;8.60;5.88;;;;;;;;;;5020373;28;20054;-76
2022/05/04 11:08:52;;;;;;;13.52;5.85;;;;;;;;;;5029161;28;20098;-75
2022/05/04 11:11:19;;;;;;;11.23;5.75;;;;;;;;;;5026984;28;20524;-75
2022/05/04 11:13:46;;;;;;;10.60;5.30;;;;;;;;;;5035014;28;20056;-74
2022/05/04 11:16:12;;;;;;;10.70;5.55;;;;;;;;;;5033822;28;20057;-76
2022/05/04 11:18:39;;;;;;;13.88;6.70;;;;;;;;;;5035271;28;20425;-73
2022/05/04 11:21:12;;;;;;;10.98;5.95;;;;;;;;;;5035760;28;20140;-73
2022/05/04 11:23:38;;;;;;;8.18;5.47;;;;;;;;;;5035235;28;20058;-75
2022/05/04 11:26:05;;;;;;;9.75;5.18;;;;;;;;;;5031901;28;20069;-72
2022/05/04 11:28:33;;;;;;;11.30;5.47;;;;;;;;;;5032287;28;20050;-73
2022/05/04 11:30:59;;;;;;;11.43;5.65;;;;;;;;;;5032993;28;20050;-72
2022/05/04 11:33:26;;;;;;;8.68;5.38;;;;;;;;;;5035297;28;20849;-72
2022/05/04 11:35:56;;;;;;;8.98;5.45;;;;;;;;;;5033780;28;20054;-73
2022/05/04 11:38:23;;;;;;;8.82;5.72;;;;;;;;;;5035092;28;20574;-75
2022/05/04 11:40:50;;;;;;;10.05;5.70;;;;;;;;;;5033397;28;20088;-74
2022/05/04 11:43:27;;;;;;;10.05;6.30;;;;;;;;;;5035334;28;20058;-75
2022/05/04 11:45:55;;;;;;;12.82;5.55;;;;;;;;;;5034239;28;20050;-72
2022/05/04 11:48:22;;;;;;;14.65;6.57;;;;;;;;;;5034332;28;20054;-71
2022/05/04 11:50:48;;;;;;;14.32;6.50;;;;;;;;;;5034527;28;20057;-71
2022/05/04 11:53:15;;;;;;;10.18;5.35;;;;;;;;;;5034356;28;20064;-68
2022/05/04 11:55:41;;;;;;;11.85;5.22;;;;;;;;;;5034924;28;20050;-72
2022/05/04 11:58:09;;;;;;;13.52;5.85;;;;;;;;;;5034582;28;20050;-72
2022/05/04 12:00:36;;;;;;;10.23;6.43;;;;;;;;;;5034550;28;20050;-72
2022/05/04 12:03:04;;;;;;;9.68;6.13;;;;;;;;;;5033343;28;20052;-72
2022/05/04 12:05:30;;;;;;;9.40;5.70;;;;;;;;;;5034718;28;20421;-71
2022/05/04 12:07:57;;;;;;;13.02;6.57;;;;;;;;;;5034912;28;20046;-75
2022/05/04 12:10:23;;;;;;;12.50;6.63;;;;;;;;;;5034606;28;20060;-74
2022/05/04 12:12:50;;;;;;;11.43;6.00;;;;;;;;;;5034956;28;20429;-74
2022/05/04 12:15:19;;;;;;;10.15;5.95;;;;;;;;;;5034038;28;20441;-77
2022/05/04 12:17:45;;;;;;;8.50;5.85;;;;;;;;;;5033127;28;20490;-78
2022/05/04 12:20:11;;;;;;;11.90;6.65;;;;;;;;;;5032567;28;20104;-77
2022/05/04 12:22:38;;;;;;;16.10;7.28;;;;;;;;;;5034428;28;20050;-71
2022/05/04 12:25:04;;;;;;;14.80;6.55;;;;;;;;;;5035180;28;20058;-74
2022/05/04 12:27:32;;;;;;;14.80;6.10;;;;;;;;;;5034136;28;20045;-72
2022/05/04 12:35:32;;;;;;;14.77;6.13;;;;;;;;;;5029616;28;20060;-76
2022/05/04 12:37:58;;;;;;;12.93;6.22;;;;;;;;;;5032430;28;20077;-77
2022/05/04 12:40:27;;;;;;;10.25;5.47;;;;;;;;;;5033193;28;20529;-72
2022/05/04 12:42:54;;;;;;;12.35;6.75;;;;;;;;;;5034443;28;20053;-75
2022/05/04 12:45:23;;;;;;;11.98;5.85;;;;;;;;;;5033589;28;20058;-78
2022/05/04 12:47:49;;;;;;;11.95;5.20;;;;;;;;;;5033452;28;20081;-71
2022/05/04 12:50:15;;;;;;;9.73;4.85;;;;;;;;;;5029147;28;20060;-72
2022/05/04 12:52:42;;;;;;;14.70;6.35;;;;;;;;;;5033625;28;20060;-70
2022/05/04 12:55:08;;;;;;;18.00;6.30;;;;;;;;;;5030061;28;20057;-68
2022/05/04 12:57:34;;;;;;;10.52;5.88;;;;;;;;;;5033804;28;20057;-71
2022/05/04 13:00:01;;;;;;;12.60;5.72;;;;;;;;;;5031439;28;20054;-71
2022/05/04 13:02:27;;;;;;;10.18;6.20;;;;;;;;;;5033987;28;20076;-72
2022/05/04 13:04:53;;;;;;;10.68;5.93;;;;;;;;;;5033523;28;20053;-75
2022/05/04 13:07:21;;;;;;;11.25;5.13;;;;;;;;;;5033685;28;20053;-69
2022/05/04 13:09:47;;;;;;;14.85;6.20;;;;;;;;;;5032509;28;20054;-69
2022/05/04 13:12:14;;;;;;;10.48;6.13;;;;;;;;;;5033178;28;20056;-69
2022/05/04 13:14:40;;;;;;;7.82;5.40;;;;;;;;;;5032340;28;20057;-69
2022/05/04 13:17:07;;;;;;;10.35;5.85;;;;;;;;;;5023483;28;20058;-70
2022/05/04 13:19:36;;;;;;;10.45;5.13;;;;;;;;;;5033317;28;20058;-70
2022/05/04 13:22:03;;;;;;;9.45;5.28;;;;;;;;;;5030302;28;20050;-72
2022/05/04 13:24:29;;;;;;;9.18;5.32;;;;;;;;;;5037917;28;20064;-72
2022/05/04 13:26:55;;;;;;;10.05;5.07;;;;;;;;;;5033298;28;20046;-72
2022/05/04 13:29:22;;;;;;;10.88;5.30;;;;;;;;;;5031715;28;20053;-73
2022/05/04 13:31:49;;;;;;;9.82;5.53;;;;;;;;;;5033616;28;20050;-71
2022/05/04 13:34:16;;;;;;;10.77;6.15;;;;;;;;;;5030121;28;20085;-73
2022/05/04 13:36:42;;;;;;;12.73;6.60;;;;;;;;;;5032834;28;20482;-75
2022/05/04 13:39:08;;;;;;;8.80;5.10;;;;;;;;;;5032679;28;20053;-71
2022/05/04 13:41:34;;;;;;;8.57;5.03;;;;;;;;;;5043044;28;20045;-70
2022/05/04 13:44:01;;;;;;;12.35;5.93;;;;;;;;;;5034061;28;20089;-69
2022/05/04 13:46:28;;;;;;;11.75;6.15;;;;;;;;;;5030778;28;20512;-70
2022/05/04 13:48:56;;;;;;;11.70;6.07;;;;;;;;;;5032967;28;20053;-70
2022/05/04 13:54:11;;;;;;;7.75;5.70;;;;;;;;;;5033205;28;20046;-69
2022/05/04 13:56:38;;;;;;;10.52;6.18;;;;;;;;;;5032438;28;20060;-69
2022/05/04 13:59:05;;;;;;;9.07;7.00;;;;;;;;;;5032448;28;20049;-69
2022/05/04 14:01:35;;;;;;;10.43;5.68;;;;;;;;;;5032519;28;20062;-70
2022/05/04 14:04:02;;;;;;;12.98;6.07;;;;;;;;;;5030095;28;20049;-70
2022/05/04 14:06:28;;;;;;;14.55;6.10;;;;;;;;;;5032412;28;20054;-70
2022/05/04 14:08:55;;;;;;;10.40;6.15;;;;;;;;;;5033870;28;20054;-71
2022/05/04 14:11:22;;;;;;;10.88;5.82;;;;;;;;;;5023188;28;20513;-73
2022/05/04 14:13:50;;;;;;;16.85;6.78;;;;;;;;;;5029903;28;20092;-79
2022/05/04 14:16:16;;;;;;;8.38;5.70;;;;;;;;;;5030758;28;20177;-74
2022/05/04 14:18:43;;;;;;;12.38;6.05;;;;;;;;;;5029148;28;20056;-69
2022/05/04 14:21:09;;;;;;;13.77;6.93;;;;;;;;;;5019269;28;20050;-71
2022/05/04 14:23:35;;;;;;;10.32;6.00;;;;;;;;;;5021409;28;20053;-71
2022/05/04 14:26:02;;;;;;;12.98;6.20;;;;;;;;;;5022400;28;20054;-71
2022/05/04 14:28:28;;;;;;;12.23;7.03;;;;;;;;;;5018084;28;20054;-70
2022/05/04 14:30:56;;;;;;;11.27;6.05;;;;;;;;;;5023161;28;20054;-69
2022/05/04 14:33:23;;;;;;;12.57;6.63;;;;;;;;;;5026714;28;20053;-69
2022/05/04 14:35:49;;;;;;;9.98;5.75;;;;;;;;;;5031924;28;20606;-69
2022/05/04 14:38:16;;;;;;;13.35;6.63;;;;;;;;;;5031792;28;20056;-69
2022/05/04 14:40:44;;;;;;;12.82;5.80;;;;;;;;;;5030891;28;20056;-70
2022/05/04 14:43:10;;;;;;;11.38;5.95;;;;;;;;;;5029383;28;20057;-69
2022/05/04 14:45:36;;;;;;;14.38;6.43;;;;;;;;;;5030715;28;20054;-68
2022/05/04 14:48:03;;;;;;;10.50;5.90;;;;;;;;;;5036313;28;20576;-69
2022/05/04 14:50:31;;;;;;;12.85;6.47;;;;;;;;;;5031425;28;20544;-72
2022/05/04 14:52:57;;;;;;;11.07;5.72;;;;;;;;;;5034237;28;20054;-70
2022/05/04 14:55:23;;;;;;;12.23;6.60;;;;;;;;;;5034827;28;20054;-70
2022/05/04 14:57:50;;;;;;;12.77;5.95;;;;;;;;;;5037056;28;20060;-70
2022/05/04 15:00:16;;;;;;;16.20;6.68;;;;;;;;;;5036098;28;20058;-69
2022/05/04 15:05:29;;;;;;;;;;;;;;;;;;5034044;28;20050;-69
2022/05/04 15:07:55;;;;;;;13.07;6.47;;;;;;;;;;5033419;28;45752;-69
2022/05/04 15:10:22;;;;;;;11.07;5.80;;;;;;;;;;5034298;28;20629;-69
2022/05/04 15:12:48;;;;;;;9.18;5.30;;;;;;;;;;5036148;28;20053;-72
2022/05/04 15:15:15;;;;;;;9.02;5.60;;;;;;;;;;5035871;28;20045;-70